Time;durP1;ratioP1;P1;durP2;ratioP2;P2;SDS_P1;SDS_P2;PMS_P1;PMS_P2;Temp;Humidity;BMP_temperature;BMP_pressure;BME280_temperature;BME280_humidity;BME280_pressure;Samples;Min_cycle;Max_cycle;Signal;HPM_P1;HPM_P2
2023/10/03 00:00:34;;;;;;;41.35;20.48;;;18.60;99.90;;;;;;4940729;28;20081;-58
2023/10/03 00:03:01;;;;;;;41.22;20.35;;;18.60;99.90;;;;;;4939971;28;20051;-58
2023/10/03 00:05:28;;;;;;;39.05;19.45;;;18.60;99.90;;;;;;4942598;28;20154;-57
2023/10/03 00:07:59;;;;;;;39.83;19.30;;;18.60;99.90;;;;;;4943258;28;20057;-57
2023/10/03 00:10:25;;;;;;;42.97;21.17;;;18.60;99.90;;;;;;4944264;28;20039;-58
2023/10/03 00:12:51;;;;;;;39.17;20.63;;;18.60;99.90;;;;;;4925968;29;20369;-54
2023/10/03 00:15:21;;;;;;;42.25;21.08;;;18.60;99.90;;;;;;4938207;28;20043;-57
2023/10/03 00:17:47;;;;;;;44.42;21.23;;;18.60;99.90;;;;;;4939758;28;20079;-58
2023/10/03 00:20:16;;;;;;;41.08;20.73;;;18.60;99.90;;;;;;4942538;28;20105;-56
2023/10/03 00:22:42;;;;;;;41.67;21.75;;;18.60;99.90;;;;;;4944075;28;20047;-58
2023/10/03 00:25:16;;;;;;;42.50;21.38;;;18.50;99.90;;;;;;4938125;28;20051;-59
2023/10/03 00:27:52;;;;;;;48.58;21.40;;;18.50;99.90;;;;;;4942559;28;20059;-57
2023/10/03 00:30:24;;;;;;;45.20;21.65;;;18.50;99.90;;;;;;4939642;28;20066;-59
2023/10/03 00:32:54;;;;;;;39.83;21.42;;;18.50;99.90;;;;;;4942782;28;20234;-58
2023/10/03 00:35:20;;;;;;;42.17;22.02;;;18.50;99.90;;;;;;4945008;28;20050;-58
2023/10/03 00:37:48;;;;;;;49.03;21.08;;;18.50;99.90;;;;;;4936504;28;20051;-56
2023/10/03 00:42:47;;;;;;;41.80;20.88;;;18.50;99.90;;;;;;4936574;28;20051;-58
2023/10/03 00:45:21;;;;;;;39.45;21.10;;;18.50;99.90;;;;;;4942759;28;20047;-54
2023/10/03 00:47:54;;;;;;;40.05;19.42;;;18.50;99.90;;;;;;4941626;28;20504;-55
2023/10/03 00:50:25;;;;;;;39.72;20.55;;;18.50;99.90;;;;;;4944645;28;20065;-53
2023/10/03 00:52:55;;;;;;;37.78;20.10;;;18.50;99.90;;;;;;4949748;28;20035;-58
2023/10/03 00:55:26;;;;;;;40.40;20.63;;;18.50;99.90;;;;;;4947697;28;20040;-58
2023/10/03 00:58:18;;;;;;;41.97;20.65;;;18.50;99.90;;;;;;4943711;28;20098;-57
2023/10/03 01:00:50;;;;;;;41.42;20.92;;;18.40;99.90;;;;;;4928488;28;20061;-59
2023/10/03 01:03:38;;;;;;;38.42;19.45;;;18.40;99.90;;;;;;4945719;28;20047;-57
2023/10/03 01:06:09;;;;;;;35.88;19.55;;;18.40;99.90;;;;;;4946345;28;20050;-57
2023/10/03 01:08:43;;;;;;;43.78;20.60;;;18.40;99.90;;;;;;4947517;28;20725;-58
2023/10/03 01:11:15;;;;;;;38.67;20.05;;;18.30;99.90;;;;;;4948122;28;20417;-56
2023/10/03 01:13:42;;;;;;;38.65;20.05;;;18.30;99.90;;;;;;4943672;28;20058;-58
2023/10/03 01:16:08;;;;;;;39.80;19.35;;;18.30;99.90;;;;;;4939541;28;20677;-58
2023/10/03 01:18:37;;;;;;;43.10;20.45;;;18.20;99.90;;;;;;4942815;28;20093;-58
2023/10/03 01:21:05;;;;;;;41.15;19.88;;;18.20;99.90;;;;;;4946528;28;20051;-53
2023/10/03 01:23:35;;;;;;;37.42;19.73;;;18.20;99.90;;;;;;4942205;28;20045;-58
2023/10/03 01:26:03;;;;;;;37.65;19.50;;;18.20;99.90;;;;;;4946756;28;20043;-57
2023/10/03 01:28:29;;;;;;;39.20;18.85;;;18.20;99.90;;;;;;4945011;28;20169;-54
2023/10/03 01:30:54;;;;;;;37.75;19.65;;;18.20;99.90;;;;;;4947408;28;20563;-56
2023/10/03 01:33:26;;;;;;;38.92;18.88;;;18.20;99.90;;;;;;4946626;28;20133;-56
2023/10/03 01:35:53;;;;;;;40.33;19.95;;;18.10;99.90;;;;;;4947811;28;20058;-58
2023/10/03 01:38:20;;;;;;;37.97;18.60;;;18.10;99.90;;;;;;4945839;28;20055;-59
2023/10/03 01:40:52;;;;;;;40.60;19.52;;;18.10;99.90;;;;;;4946099;28;20043;-57
2023/10/03 01:43:18;;;;;;;;;;;18.10;99.90;;;;;;4935103;28;20231;-57
2023/10/03 01:45:44;;;;;;;40.53;20.08;;;18.00;99.90;;;;;;4941408;28;20496;-59
2023/10/03 01:48:12;;;;;;;40.63;19.88;;;18.00;99.90;;;;;;4933388;28;20128;-58
2023/10/03 01:50:38;;;;;;;41.13;19.52;;;18.00;99.90;;;;;;4944489;28;20566;-55
2023/10/03 01:53:07;;;;;;;37.40;19.35;;;18.00;99.90;;;;;;4949195;28;20039;-57
2023/10/03 01:55:34;;;;;;;39.28;19.90;;;18.10;99.90;;;;;;4947608;28;20131;-55
2023/10/03 01:57:59;;;;;;;37.05;19.17;;;18.00;99.90;;;;;;4946953;28;20055;-56
2023/10/03 02:00:26;;;;;;;38.88;18.60;;;18.00;99.90;;;;;;4944239;28;20049;-58
2023/10/03 02:02:53;;;;;;;40.75;19.02;;;18.10;99.90;;;;;;4928133;29;20051;-54
2023/10/03 02:05:23;;;;;;;39.05;18.38;;;18.10;99.90;;;;;;4946798;28;20128;-58
2023/10/03 02:08:03;;;;;;;38.75;18.75;;;18.10;99.90;;;;;;4949065;28;20051;-56
2023/10/03 02:10:30;;;;;;;41.20;18.83;;;18.10;99.90;;;;;;4948957;28;20491;-57
2023/10/03 02:12:56;;;;;;;35.95;17.90;;;18.10;99.90;;;;;;4931333;28;20043;-56
2023/10/03 02:15:24;;;;;;;40.65;18.95;;;18.10;99.90;;;;;;4940522;28;20043;-56
2023/10/03 02:17:56;;;;;;;39.30;17.55;;;18.00;99.90;;;;;;4944882;28;20047;-56
2023/10/03 02:20:25;;;;;;;37.53;18.15;;;18.10;99.90;;;;;;4960238;28;20066;-58
2023/10/03 02:22:54;;;;;;;38.63;17.45;;;18.10;99.90;;;;;;4947423;28;20062;-59
2023/10/03 02:25:25;;;;;;;40.92;18.35;;;18.10;99.90;;;;;;4942804;28;20051;-56
2023/10/03 02:27:51;;;;;;;34.83;17.42;;;18.10;99.90;;;;;;4941722;28;20126;-58
2023/10/03 02:30:23;;;;;;;40.17;18.02;;;18.10;99.90;;;;;;4945109;28;20055;-58
2023/10/03 02:32:52;;;;;;;39.28;17.65;;;18.10;99.90;;;;;;4945637;28;20416;-60
2023/10/03 02:35:21;;;;;;;40.42;18.20;;;18.10;99.90;;;;;;4947055;28;20486;-58
2023/10/03 02:37:47;;;;;;;37.45;17.42;;;18.10;99.90;;;;;;4948501;28;20074;-57
2023/10/03 02:40:15;;;;;;;35.67;17.80;;;18.10;99.90;;;;;;4927561;28;20047;-57
2023/10/03 02:42:40;;;;;;;38.05;18.20;;;18.10;99.90;;;;;;4944862;28;20479;-56
2023/10/03 02:45:08;;;;;;;37.10;17.45;;;18.00;99.90;;;;;;4932612;28;20057;-58
2023/10/03 02:47:36;;;;;;;37.30;17.45;;;18.00;99.90;;;;;;4936268;28;20046;-59
2023/10/03 02:50:02;;;;;;;33.88;16.98;;;18.00;99.90;;;;;;4935744;28;20078;-57
2023/10/03 02:52:28;;;;;;;38.13;17.05;;;18.00;99.90;;;;;;4946003;28;20277;-56
2023/10/03 02:54:54;;;;;;;41.65;18.02;;;18.00;99.90;;;;;;4947025;28;20333;-57
2023/10/03 02:57:21;;;;;;;41.70;17.38;;;18.00;99.90;;;;;;4928789;28;20130;-57
2023/10/03 02:59:47;;;;;;;35.88;16.95;;;18.00;99.90;;;;;;4945994;28;20066;-58
2023/10/03 03:02:14;;;;;;;35.78;16.60;;;18.00;99.90;;;;;;4948000;28;20130;-57
2023/10/03 03:04:43;;;;;;;37.70;16.33;;;18.00;99.90;;;;;;4948341;28;20062;-54
2023/10/03 03:07:10;;;;;;;38.97;16.90;;;18.00;99.90;;;;;;4945100;28;20051;-56
2023/10/03 03:09:36;;;;;;;36.20;16.80;;;18.00;99.90;;;;;;4945590;28;20808;-55
2023/10/03 03:12:06;;;;;;;40.67;17.80;;;18.00;99.90;;;;;;4944558;28;20094;-56
2023/10/03 03:14:32;;;;;;;41.28;17.75;;;18.10;99.90;;;;;;4944670;28;20039;-57
2023/10/03 03:16:57;;;;;;;36.13;16.92;;;18.10;99.90;;;;;;4947033;28;20042;-56
2023/10/03 03:19:26;;;;;;;35.63;16.67;;;18.10;99.90;;;;;;4948457;28;20699;-58
2023/10/03 03:21:57;;;;;;;31.08;15.32;;;18.10;99.90;;;;;;4945473;28;20061;-54
2023/10/03 03:24:33;;;;;;;38.95;17.92;;;18.10;99.90;;;;;;4945492;28;20049;-59
2023/10/03 03:26:59;;;;;;;35.70;16.60;;;18.10;99.90;;;;;;4942808;28;20047;-55
2023/10/03 03:29:35;;;;;;;34.50;16.70;;;18.10;99.90;;;;;;4928504;28;20117;-60
2023/10/03 03:32:01;;;;;;;38.85;17.10;;;18.10;99.90;;;;;;4963350;28;20165;-59
2023/10/03 03:34:28;;;;;;;41.08;17.02;;;18.10;99.90;;;;;;4966004;28;20137;-57
2023/10/03 03:37:22;;;;;;;33.70;16.33;;;18.10;99.90;;;;;;4965072;28;20281;-57
2023/10/03 03:39:52;;;;;;;34.28;16.08;;;18.10;99.90;;;;;;4964158;28;20114;-59
2023/10/03 03:42:19;;;;;;;33.28;16.42;;;18.10;99.90;;;;;;4959856;28;20047;-59
2023/10/03 03:44:45;;;;;;;32.45;16.20;;;18.10;99.90;;;;;;4964192;28;20109;-56
2023/10/03 03:47:11;;;;;;;31.77;15.90;;;18.10;99.90;;;;;;4966444;28;20207;-57
2023/10/03 03:49:37;;;;;;;33.13;15.00;;;18.10;99.90;;;;;;4957686;28;20089;-59
2023/10/03 03:52:05;;;;;;;33.58;15.77;;;18.10;99.90;;;;;;4964276;28;20094;-59
2023/10/03 03:54:31;;;;;;;35.33;16.08;;;18.10;99.90;;;;;;4965099;28;20045;-59
2023/10/03 03:56:56;;;;;;;36.65;15.77;;;18.10;99.90;;;;;;4952595;28;20051;-58
2023/10/03 03:59:22;;;;;;;34.13;16.05;;;18.10;99.90;;;;;;4979055;28;20038;-57
2023/10/03 04:01:50;;;;;;;31.33;14.98;;;18.10;99.90;;;;;;4946733;28;20045;-57
2023/10/03 04:04:16;;;;;;;34.38;15.88;;;18.20;99.90;;;;;;4945561;28;20696;-57
2023/10/03 04:06:42;;;;;;;33.15;15.30;;;18.20;99.90;;;;;;4963378;28;20688;-58
2023/10/03 04:09:08;;;;;;;31.88;14.68;;;18.30;99.90;;;;;;4964276;28;20043;-58
2023/10/03 04:11:35;;;;;;;31.02;14.45;;;18.30;99.90;;;;;;4965696;28;20085;-58
2023/10/03 04:14:04;;;;;;;31.80;14.93;;;18.30;99.90;;;;;;4958346;28;20641;-59
2023/10/03 04:16:38;;;;;;;32.30;15.57;;;18.30;99.90;;;;;;4963324;28;20090;-56
2023/10/03 04:19:05;;;;;;;31.30;14.63;;;18.40;99.90;;;;;;4960626;28;20060;-58
2023/10/03 04:21:32;;;;;;;34.97;15.43;;;18.40;99.90;;;;;;4959748;28;20046;-59
2023/10/03 04:23:59;;;;;;;35.50;15.70;;;18.40;99.90;;;;;;4963643;28;20043;-58
2023/10/03 04:26:25;;;;;;;37.80;14.93;;;18.40;99.90;;;;;;4963733;28;20035;-55
2023/10/03 04:28:54;;;;;;;34.75;16.30;;;18.40;99.90;;;;;;4963604;28;20047;-60
2023/10/03 04:31:20;;;;;;;32.80;15.55;;;18.40;99.90;;;;;;4946741;28;20051;-58
2023/10/03 04:33:46;;;;;;;34.60;15.93;;;18.40;99.90;;;;;;4944664;28;20106;-56
2023/10/03 04:36:14;;;;;;;35.92;17.27;;;18.40;99.90;;;;;;4928255;28;20051;-58
2023/10/03 04:38:40;;;;;;;31.55;15.77;;;18.40;99.90;;;;;;4946034;28;20064;-59
2023/10/03 04:41:09;;;;;;;39.72;16.23;;;18.40;99.90;;;;;;4946280;28;20062;-59
2023/10/03 04:43:35;;;;;;;34.92;14.60;;;18.40;99.90;;;;;;4942472;28;20266;-58
2023/10/03 04:46:02;;;;;;;34.20;15.32;;;18.40;99.90;;;;;;4940844;28;20035;-58
2023/10/03 04:48:28;;;;;;;30.25;14.20;;;18.50;99.90;;;;;;4943509;28;20047;-58
2023/10/03 04:50:54;;;;;;;35.13;15.70;;;18.50;99.90;;;;;;4946135;28;20244;-56
2023/10/03 04:53:20;;;;;;;34.92;15.43;;;18.50;99.90;;;;;;4946565;28;20099;-58
2023/10/03 04:55:49;;;;;;;35.05;15.13;;;18.50;99.90;;;;;;4936843;28;20055;-58
2023/10/03 04:58:15;;;;;;;31.25;14.02;;;18.60;99.90;;;;;;4942780;28;21952;-55
2023/10/03 05:00:44;;;;;;;33.90;15.40;;;18.60;99.90;;;;;;4925196;28;20046;-53
2023/10/03 05:03:10;;;;;;;29.92;14.15;;;18.60;99.90;;;;;;4945087;28;20566;-58
2023/10/03 05:05:37;;;;;;;32.42;15.88;;;18.70;99.90;;;;;;4947455;28;20039;-58
2023/10/03 05:08:03;;;;;;;35.50;15.68;;;18.70;99.90;;;;;;4927687;28;20055;-55
2023/10/03 05:10:30;;;;;;;32.53;14.82;;;18.70;99.90;;;;;;4942991;28;20051;-56
2023/10/03 05:12:57;;;;;;;35.30;14.88;;;18.70;99.90;;;;;;4944508;28;20448;-57
2023/10/03 05:15:26;;;;;;;35.03;14.60;;;18.80;99.90;;;;;;4946339;28;20054;-58
2023/10/03 05:17:54;;;;;;;35.83;14.50;;;18.80;99.90;;;;;;4949142;28;20098;-57
2023/10/03 05:20:21;;;;;;;38.17;14.68;;;18.80;99.90;;;;;;4951359;28;20035;-58
2023/10/03 05:22:47;;;;;;;30.77;13.60;;;18.80;99.90;;;;;;4947690;28;20046;-57
2023/10/03 05:25:18;;;;;;;35.08;14.48;;;18.80;99.90;;;;;;4947587;28;20541;-58
2023/10/03 05:27:48;;;;;;;36.63;14.85;;;18.90;99.90;;;;;;4945032;28;20074;-58
2023/10/03 05:30:14;;;;;;;34.15;14.52;;;18.90;99.90;;;;;;4952625;28;20063;-58
2023/10/03 05:32:42;;;;;;;31.40;14.55;;;19.00;99.90;;;;;;4969635;28;20058;-59
2023/10/03 05:35:09;;;;;;;37.03;14.70;;;19.00;99.90;;;;;;4948190;28;20054;-57
2023/10/03 05:37:35;;;;;;;43.90;15.70;;;19.10;99.90;;;;;;4965542;28;20061;-58
2023/10/03 05:40:20;;;;;;;37.40;15.15;;;19.10;99.90;;;;;;4963807;28;20129;-58
2023/10/03 05:42:49;;;;;;;35.60;15.05;;;19.10;99.90;;;;;;4965464;28;20038;-57
2023/10/03 05:45:17;;;;;;;33.47;15.35;;;19.10;99.90;;;;;;4966625;28;20106;-58
2023/10/03 05:47:45;;;;;;;35.58;15.65;;;19.10;99.90;;;;;;4968893;28;20046;-56
2023/10/03 05:50:11;;;;;;;46.30;17.40;;;19.20;99.90;;;;;;4966560;28;20819;-56
2023/10/03 05:52:38;;;;;;;37.53;16.05;;;19.20;99.90;;;;;;4965039;28;20047;-56
2023/10/03 05:55:05;;;;;;;37.65;16.17;;;19.20;99.90;;;;;;4965178;28;20050;-57
2023/10/03 05:57:30;;;;;;;40.08;17.00;;;19.20;99.90;;;;;;4979574;28;20469;-58
2023/10/03 06:00:00;;;;;;;37.08;15.60;;;19.20;99.90;;;;;;4955869;28;20038;-57
2023/10/03 06:02:26;;;;;;;39.00;16.45;;;19.20;99.90;;;;;;4955283;28;20050;-57
2023/10/03 06:04:53;;;;;;;34.65;14.68;;;19.20;99.90;;;;;;4964042;28;20042;-58
2023/10/03 06:07:19;;;;;;;35.17;14.60;;;19.20;99.90;;;;;;4965977;28;20472;-59
2023/10/03 06:09:45;;;;;;;39.97;15.73;;;19.20;99.90;;;;;;4965852;28;20101;-56
2023/10/03 06:12:10;;;;;;;36.03;15.30;;;19.20;99.90;;;;;;4963758;28;20043;-55
2023/10/03 06:14:39;;;;;;;42.28;16.13;;;19.20;99.90;;;;;;4966121;28;20042;-59
2023/10/03 06:17:07;;;;;;;35.80;15.20;;;19.20;99.90;;;;;;4965574;28;20043;-59
2023/10/03 06:19:33;;;;;;;30.73;14.27;;;19.20;99.90;;;;;;4955518;28;20085;-62
2023/10/03 06:21:59;;;;;;;27.30;13.13;;;19.20;99.90;;;;;;4950624;28;20069;-63
2023/10/03 06:24:26;;;;;;;26.50;13.90;;;19.20;99.90;;;;;;4946361;28;20801;-58
2023/10/03 06:26:51;;;;;;;28.65;12.90;;;19.20;99.90;;;;;;4956620;28;20046;-59
2023/10/03 06:29:17;;;;;;;25.23;13.30;;;19.20;99.90;;;;;;4952852;28;20074;-62
2023/10/03 06:31:44;;;;;;;26.30;12.13;;;19.20;99.90;;;;;;4930583;28;21112;-58
2023/10/03 06:34:10;;;;;;;31.67;13.10;;;19.20;99.90;;;;;;4912850;28;20468;-59
2023/10/03 06:36:36;;;;;;;31.10;13.88;;;19.20;99.90;;;;;;4934472;28;20047;-60
2023/10/03 06:39:04;;;;;;;29.73;13.75;;;19.20;99.90;;;;;;4935957;28;20141;-62
2023/10/03 06:41:31;;;;;;;32.75;14.27;;;19.20;99.90;;;;;;4935191;28;20788;-60
2023/10/03 06:43:57;;;;;;;31.58;14.38;;;19.20;99.90;;;;;;4932681;28;20071;-60
2023/10/03 06:46:23;;;;;;;30.02;14.25;;;19.20;99.90;;;;;;4929547;28;20395;-62
2023/10/03 06:48:52;;;;;;;30.10;13.43;;;19.20;99.90;;;;;;4915377;28;20055;-59
2023/10/03 06:51:18;;;;;;;34.28;13.63;;;19.20;99.90;;;;;;4936544;28;20541;-58
2023/10/03 06:53:47;;;;;;;26.42;13.43;;;19.20;99.90;;;;;;4936153;28;20487;-61
2023/10/03 06:56:14;;;;;;;29.08;13.43;;;19.10;99.90;;;;;;4933044;28;20459;-63
2023/10/03 06:58:39;;;;;;;29.08;12.90;;;19.10;99.90;;;;;;4931496;28;20058;-61
2023/10/03 07:01:05;;;;;;;31.40;12.65;;;19.10;99.90;;;;;;4925142;28;20035;-56
2023/10/03 07:03:31;;;;;;;34.13;12.50;;;19.00;99.90;;;;;;4921681;28;20062;-62
2023/10/03 07:05:58;;;;;;;36.35;13.00;;;19.00;99.90;;;;;;4936028;28;20415;-61
2023/10/03 07:08:26;;;;;;;31.02;12.18;;;18.90;99.90;;;;;;4927918;28;20137;-61
2023/10/03 07:10:52;;;;;;;26.20;11.45;;;18.90;99.90;;;;;;4930687;28;20597;-59
2023/10/03 07:13:18;;;;;;;23.73;10.65;;;18.80;99.90;;;;;;4935336;28;20047;-56
2023/10/03 07:15:44;;;;;;;21.52;10.02;;;18.80;99.90;;;;;;4934517;28;20057;-57
2023/10/03 07:18:10;;;;;;;28.58;10.68;;;18.80;99.90;;;;;;4935678;28;20514;-62
2023/10/03 07:20:36;;;;;;;29.30;10.85;;;18.70;99.90;;;;;;4917364;29;20050;-62
2023/10/03 07:23:02;;;;;;;30.30;10.85;;;18.70;99.90;;;;;;4936342;28;20499;-60
2023/10/03 07:25:31;;;;;;;30.42;9.32;;;18.70;99.90;;;;;;4936958;28;20046;-57
2023/10/03 07:27:56;;;;;;;29.52;9.73;;;18.70;99.90;;;;;;4928424;28;20058;-59
2023/10/03 07:30:22;;;;;;;26.90;8.50;;;18.60;99.90;;;;;;4934595;28;20063;-58
2023/10/03 07:32:48;;;;;;;19.95;6.82;;;18.60;99.90;;;;;;4932120;28;20055;-60
2023/10/03 07:35:17;;;;;;;26.35;7.40;;;18.50;99.90;;;;;;4934893;28;20141;-60
2023/10/03 07:37:43;;;;;;;22.15;7.55;;;18.50;99.90;;;;;;4934488;28;20055;-62
2023/10/03 07:40:09;;;;;;;22.73;6.78;;;18.40;99.90;;;;;;4930671;28;20051;-60
2023/10/03 07:42:35;;;;;;;21.05;7.32;;;18.30;99.90;;;;;;4936905;28;20397;-57
2023/10/03 07:45:02;;;;;;;24.80;7.45;;;18.30;99.90;;;;;;4944413;28;20035;-60
2023/10/03 07:47:28;;;;;;;20.23;6.10;;;18.20;99.90;;;;;;4943794;29;20461;-62
2023/10/03 07:49:54;;;;;;;16.75;4.95;;;18.20;99.90;;;;;;4945587;28;20038;-59
2023/10/03 07:52:21;;;;;;;23.02;5.57;;;18.10;99.90;;;;;;4945471;28;20054;-62
2023/10/03 07:54:54;;;;;;;18.58;5.10;;;18.10;99.90;;;;;;4944832;28;20039;-62
2023/10/03 07:57:25;;;;;;;21.42;4.13;;;18.00;99.90;;;;;;4945811;28;20043;-57
2023/10/03 07:59:52;;;;;;;16.70;4.05;;;18.00;99.90;;;;;;4944531;28;20166;-60
2023/10/03 08:02:18;;;;;;;14.15;3.50;;;17.90;99.90;;;;;;4946558;28;20035;-62
2023/10/03 08:04:46;;;;;;;13.52;3.85;;;17.90;99.90;;;;;;4944693;28;20038;-62
2023/10/03 08:07:22;;;;;;;12.93;3.50;;;17.80;99.90;;;;;;4939939;28;20109;-62
2023/10/03 08:09:50;;;;;;;19.65;3.13;;;17.70;99.90;;;;;;4942338;28;20050;-62
2023/10/03 08:12:23;;;;;;;14.07;3.30;;;17.60;99.90;;;;;;4946596;28;20134;-62
2023/10/03 08:14:52;;;;;;;14.20;3.17;;;17.60;99.90;;;;;;4945299;29;20051;-60
2023/10/03 08:17:26;;;;;;;15.48;2.78;;;17.60;99.90;;;;;;4939775;28;20066;-61
2023/10/03 08:19:52;;;;;;;9.48;2.28;;;17.50;99.90;;;;;;4944632;29;20058;-62
2023/10/03 08:22:20;;;;;;;9.75;2.13;;;17.40;99.90;;;;;;4942804;28;20487;-61
2023/10/03 08:24:47;;;;;;;8.07;1.55;;;17.40;99.90;;;;;;4927289;29;20087;-62
2023/10/03 08:27:21;;;;;;;11.73;1.83;;;17.40;99.90;;;;;;4942778;28;20049;-58
2023/10/03 08:29:57;;;;;;;11.32;2.20;;;17.30;99.90;;;;;;4941642;28;20035;-56
2023/10/03 08:32:27;;;;;;;9.50;1.90;;;17.30;99.90;;;;;;4953554;28;20047;-62
2023/10/03 08:34:52;;;;;;;8.90;1.45;;;17.30;99.90;;;;;;4937578;28;20464;-59
2023/10/03 08:37:21;;;;;;;11.23;1.98;;;17.30;99.90;;;;;;4951121;28;21554;-62
2023/10/03 08:39:50;;;;;;;7.90;1.80;;;17.30;99.90;;;;;;4954408;28;20429;-62
2023/10/03 08:42:35;;;;;;;8.00;1.85;;;17.20;99.90;;;;;;4959199;28;20053;-61
2023/10/03 08:45:26;;;;;;;9.88;1.90;;;17.20;99.90;;;;;;4951409;28;20050;-62
2023/10/03 08:47:53;;;;;;;9.48;1.60;;;17.20;99.90;;;;;;4953579;28;20407;-62
2023/10/03 08:50:29;;;;;;;7.22;1.73;;;17.10;99.90;;;;;;4953183;28;20592;-61
2023/10/03 08:52:56;;;;;;;8.50;1.20;;;17.00;99.90;;;;;;4955435;28;20037;-62
2023/10/03 08:55:26;;;;;;;6.25;1.33;;;17.00;99.90;;;;;;4957205;28;20456;-57
2023/10/03 08:57:52;;;;;;;6.57;1.50;;;16.90;99.90;;;;;;4957181;28;20494;-63
2023/10/03 09:00:26;;;;;;;9.88;1.65;;;16.80;99.90;;;;;;4955804;28;20047;-59
2023/10/03 09:03:09;;;;;;;7.72;1.42;;;16.70;99.90;;;;;;4956952;28;20364;-60
2023/10/03 09:05:39;;;;;;;7.32;1.48;;;16.60;99.90;;;;;;4959206;28;20122;-62
2023/10/03 09:08:08;;;;;;;7.03;1.08;;;16.50;99.90;;;;;;4928245;28;20051;-62
2023/10/03 09:10:34;;;;;;;6.70;1.33;;;16.40;99.90;;;;;;4966637;28;20050;-62
2023/10/03 09:13:04;;;;;;;7.03;1.45;;;16.30;99.90;;;;;;4953783;28;20042;-59
2023/10/03 09:15:37;;;;;;;6.47;1.38;;;16.30;99.90;;;;;;4952060;28;20051;-62
2023/10/03 09:18:15;;;;;;;10.50;1.27;;;16.30;99.90;;;;;;4949631;28;20042;-62
2023/10/03 09:20:42;;;;;;;4.00;0.80;;;16.20;99.90;;;;;;4898523;28;20071;-56
2023/10/03 09:23:09;;;;;;;5.78;1.15;;;16.20;99.90;;;;;;4945978;28;20543;-61
2023/10/03 09:25:38;;;;;;;2.55;0.90;;;16.20;99.90;;;;;;4945148;28;20037;-62
2023/10/03 09:28:05;;;;;;;8.15;1.52;;;16.10;99.90;;;;;;4946377;28;20040;-58
2023/10/03 09:30:37;;;;;;;1.65;0.50;;;16.10;99.90;;;;;;4953023;28;20137;-62
2023/10/03 09:33:08;;;;;;;2.13;0.50;;;16.20;99.90;;;;;;4960856;28;20130;-60
2023/10/03 09:35:34;;;;;;;3.38;0.98;;;16.20;99.90;;;;;;4960471;28;20074;-62
2023/10/03 09:38:06;;;;;;;7.13;1.00;;;16.20;99.90;;;;;;4943271;28;20129;-58
2023/10/03 09:40:49;;;;;;;2.15;0.50;;;16.20;99.90;;;;;;4961241;28;20122;-58
2023/10/03 09:43:19;;;;;;;3.78;0.60;;;16.20;99.90;;;;;;4957845;28;20498;-62
2023/10/03 09:45:47;;;;;;;4.95;0.93;;;16.20;99.90;;;;;;4954421;28;20054;-56
2023/10/03 09:48:14;;;;;;;5.57;0.80;;;16.10;99.90;;;;;;4955799;28;20519;-62
2023/10/03 09:50:53;;;;;;;2.40;0.70;;;16.10;99.90;;;;;;4954788;28;20062;-60
2023/10/03 09:53:25;;;;;;;3.33;0.80;;;16.00;99.90;;;;;;4956302;28;20134;-62
2023/10/03 09:55:54;;;;;;;4.03;0.70;;;16.00;99.90;;;;;;4955428;28;20061;-62
2023/10/03 09:58:30;;;;;;;2.65;0.60;;;15.90;99.90;;;;;;4957112;28;20054;-60
2023/10/03 10:00:57;;;;;;;4.28;0.75;;;15.90;99.90;;;;;;4958662;28;20074;-60
2023/10/03 10:03:37;;;;;;;3.67;0.50;;;15.90;99.90;;;;;;4960438;28;20141;-62
2023/10/03 10:06:17;;;;;;;3.38;0.50;;;15.90;99.90;;;;;;4943034;28;20058;-62
2023/10/03 10:08:58;;;;;;;2.38;0.63;;;15.80;99.90;;;;;;4959483;28;20074;-54
2023/10/03 10:11:27;;;;;;;6.13;1.08;;;15.80;99.90;;;;;;4962838;28;20142;-61
2023/10/03 10:14:16;;;;;;;4.93;1.10;;;15.80;99.90;;;;;;4960650;28;20070;-62
2023/10/03 10:17:03;;;;;;;3.75;0.93;;;15.70;99.90;;;;;;4963991;28;20042;-61
2023/10/03 10:20:09;;;;;;;5.57;0.80;;;15.70;99.90;;;;;;4969705;28;20185;-62
2023/10/03 10:22:56;;;;;;;6.32;1.40;;;15.70;99.90;;;;;;4922539;28;20047;-61
2023/10/03 10:25:27;;;;;;;7.85;1.25;;;15.70;99.90;;;;;;4965325;28;20703;-62
2023/10/03 10:28:06;;;;;;;7.88;1.77;;;15.60;99.90;;;;;;4963213;28;20074;-60
2023/10/03 10:30:37;;;;;;;5.93;1.55;;;15.70;99.90;;;;;;4970518;28;20095;-62
2023/10/03 10:33:18;;;;;;;7.78;1.67;;;15.70;99.90;;;;;;4982423;28;20094;-59
2023/10/03 10:36:10;;;;;;;8.05;1.63;;;15.60;99.90;;;;;;4965246;28;20046;-59
2023/10/03 10:38:35;;;;;;;7.53;1.92;;;15.60;99.90;;;;;;4966832;28;20105;-61
2023/10/03 10:41:27;;;;;;;9.13;2.00;;;15.70;99.90;;;;;;4982052;28;20034;-59
2023/10/03 10:44:08;;;;;;;13.38;2.35;;;15.70;99.90;;;;;;4964930;28;20070;-62
2023/10/03 10:46:45;;;;;;;8.55;2.03;;;15.80;99.90;;;;;;4946145;28;20039;-60
2023/10/03 10:49:30;;;;;;;11.32;2.28;;;15.80;99.90;;;;;;4966825;28;20097;-62
2023/10/03 10:51:57;;;;;;;6.60;2.15;;;15.80;99.90;;;;;;4967386;28;20074;-55
2023/10/03 10:54:26;;;;;;;7.68;2.13;;;15.80;99.90;;;;;;4967406;28;20049;-62
2023/10/03 10:57:03;;;;;;;5.65;1.65;;;15.90;99.90;;;;;;4967111;28;20549;-63
2023/10/03 10:59:31;;;;;;;11.18;2.20;;;15.90;99.90;;;;;;4965130;28;20128;-63
2023/10/03 11:01:58;;;;;;;11.45;2.30;;;15.80;99.90;;;;;;4947372;28;20446;-62
2023/10/03 11:04:25;;;;;;;15.82;2.95;;;15.80;99.90;;;;;;4937185;28;20061;-61
2023/10/03 11:06:52;;;;;;;6.90;2.25;;;15.80;99.90;;;;;;4944900;28;20053;-58
2023/10/03 11:09:22;;;;;;;7.35;2.35;;;15.80;99.90;;;;;;4956971;28;20051;-60
2023/10/03 11:11:52;;;;;;;11.20;2.75;;;15.70;99.90;;;;;;4956424;28;20172;-58
2023/10/03 11:14:29;;;;;;;7.40;2.22;;;15.60;99.90;;;;;;4951479;28;20059;-60
2023/10/03 11:16:55;;;;;;;7.28;2.53;;;15.70;99.90;;;;;;4956752;28;20053;-62
2023/10/03 11:19:24;;;;;;;6.18;2.20;;;15.60;99.90;;;;;;4956629;28;20047;-56
2023/10/03 11:21:50;;;;;;;11.02;3.05;;;15.60;99.90;;;;;;4957842;28;20392;-61
2023/10/03 11:24:22;;;;;;;9.07;2.90;;;15.70;99.90;;;;;;4957252;28;20450;-62
2023/10/03 11:26:57;;;;;;;8.40;2.20;;;15.70;99.90;;;;;;4940052;28;20121;-62
2023/10/03 11:29:46;;;;;;;8.30;2.88;;;15.70;99.90;;;;;;4951163;28;20054;-62
2023/10/03 11:32:30;;;;;;;10.23;2.45;;;15.70;99.90;;;;;;4934202;28;20066;-62
2023/10/03 11:34:57;;;;;;;12.68;2.40;;;15.70;99.90;;;;;;4936980;28;20468;-59
2023/10/03 11:37:36;;;;;;;7.95;2.50;;;15.70;99.90;;;;;;4936495;28;20138;-62
2023/10/03 11:40:13;;;;;;;11.25;2.30;;;15.80;99.90;;;;;;4941015;28;20059;-60
2023/10/03 11:42:49;;;;;;;6.05;2.20;;;15.80;99.90;;;;;;4940638;28;20042;-59
2023/10/03 11:45:23;;;;;;;10.55;2.50;;;15.90;99.90;;;;;;4941329;28;20496;-62
2023/10/03 11:48:10;;;;;;;12.13;2.50;;;15.90;99.90;;;;;;4923950;29;20066;-61
2023/10/03 11:50:38;;;;;;;9.57;2.20;;;16.00;99.90;;;;;;4941286;28;20142;-59
2023/10/03 11:53:05;;;;;;;9.07;3.15;;;16.00;99.90;;;;;;4937757;28;20051;-55
2023/10/03 11:55:36;;;;;;;10.27;2.30;;;16.00;99.90;;;;;;4937171;28;20568;-59
2023/10/03 11:58:03;;;;;;;8.63;2.47;;;16.00;99.90;;;;;;4918472;28;20071;-59
2023/10/03 12:00:29;;;;;;;6.97;2.45;;;16.00;99.90;;;;;;4936121;28;20051;-62
2023/10/03 12:02:55;;;;;;;8.60;2.47;;;16.00;99.90;;;;;;4939012;28;21060;-62
2023/10/03 12:05:22;;;;;;;8.90;2.40;;;16.00;99.90;;;;;;4937651;28;20055;-59
2023/10/03 12:07:50;;;;;;;8.05;2.17;;;16.00;99.90;;;;;;4927165;28;20059;-62
2023/10/03 12:10:20;;;;;;;6.78;2.00;;;15.90;99.90;;;;;;4941801;28;20134;-59
2023/10/03 12:12:46;;;;;;;6.28;2.20;;;15.80;99.90;;;;;;4938367;28;20046;-59
2023/10/03 12:15:13;;;;;;;10.20;2.60;;;15.70;99.90;;;;;;4927588;28;20046;-60
2023/10/03 12:17:43;;;;;;;8.40;2.10;;;15.60;99.90;;;;;;4938618;28;20051;-59
2023/10/03 12:20:13;;;;;;;8.00;1.95;;;15.60;99.90;;;;;;4935497;28;20055;-60
2023/10/03 12:23:05;;;;;;;8.38;2.38;;;15.60;99.90;;;;;;4939396;28;20396;-58
2023/10/03 12:25:31;;;;;;;10.35;2.30;;;15.50;99.90;;;;;;4934865;28;20074;-61
2023/10/03 12:27:57;;;;;;;11.00;2.33;;;15.50;99.90;;;;;;4936211;28;20071;-62
2023/10/03 12:30:23;;;;;;;9.07;2.55;;;15.50;99.90;;;;;;4936664;28;20084;-61
2023/10/03 12:32:50;;;;;;;10.52;2.40;;;15.60;99.90;;;;;;4939295;28;20062;-61
2023/10/03 12:35:16;;;;;;;8.77;2.22;;;15.60;99.90;;;;;;4936690;28;20062;-61
2023/10/03 12:37:44;;;;;;;9.20;2.50;;;15.80;99.90;;;;;;4933705;28;20081;-58
2023/10/03 12:40:13;;;;;;;7.55;2.17;;;15.90;99.90;;;;;;4939902;28;20663;-58
2023/10/03 12:42:47;;;;;;;10.38;2.35;;;16.10;99.90;;;;;;4939187;28;20138;-61
2023/10/03 12:45:20;;;;;;;9.15;2.10;;;16.20;99.90;;;;;;4939682;28;20043;-59
2023/10/03 12:47:47;;;;;;;7.88;1.90;;;16.30;99.90;;;;;;4934807;28;20151;-59